sensor_id;sensor_type;location;lat;lon;timestamp;P1;durP1;ratioP1;P2;durP2;ratioP2
15667;SDS011;7934;48.710;9.024;2023-03-21T00:01:54;3.05;;;2.90;;
15667;SDS011;7934;48.710;9.024;2023-03-21T00:06:08;3.10;;;2.90;;
15667;SDS011;7934;48.710;9.024;2023-03-21T00:11:11;3.08;;;2.80;;
15667;SDS011;7934;48.710;9.024;2023-03-21T00:14:44;2.95;;;2.80;;
15667;SDS011;7934;48.710;9.024;2023-03-21T00:17:08;3.40;;;3.13;;
15667;SDS011;7934;48.710;9.024;2023-03-21T00:31:35;3.33;;;3.03;;
15667;SDS011;7934;48.710;9.024;2023-03-21T00:34:06;4.43;;;3.08;;
15667;SDS011;7934;48.710;9.024;2023-03-21T00:40:27;4.38;;;3.38;;
15667;SDS011;7934;48.710;9.024;2023-03-21T00:42:57;3.50;;;3.30;;
15667;SDS011;7934;48.710;9.024;2023-03-21T00:45:26;3.60;;;3.30;;
15667;SDS011;7934;48.710;9.024;2023-03-21T01:50:21;6.13;;;3.90;;
15667;SDS011;7934;48.710;9.024;2023-03-21T01:53:23;4.93;;;3.75;;
15667;SDS011;7934;48.710;9.024;2023-03-21T04:08:50;4.18;;;3.88;;
15667;SDS011;7934;48.710;9.024;2023-03-21T04:11:49;4.30;;;3.70;;
15667;SDS011;7934;48.710;9.024;2023-03-21T04:23:27;4.90;;;3.63;;
15667;SDS011;7934;48.710;9.024;2023-03-21T04:27:03;4.22;;;3.90;;
15667;SDS011;7934;48.710;9.024;2023-03-21T04:33:06;4.28;;;3.90;;
15667;SDS011;7934;48.710;9.024;2023-03-21T04:35:48;4.35;;;3.85;;
15667;SDS011;7934;48.710;9.024;2023-03-21T04:38:31;4.40;;;4.03;;
15667;SDS011;7934;48.710;9.024;2023-03-21T04:47:30;5.10;;;4.28;;
15667;SDS011;7934;48.710;9.024;2023-03-21T04:59:36;5.13;;;4.72;;
15667;SDS011;7934;48.710;9.024;2023-03-21T05:02:23;6.27;;;5.10;;
15667;SDS011;7934;48.710;9.024;2023-03-21T05:17:01;4.95;;;4.03;;
15667;SDS011;7934;48.710;9.024;2023-03-21T05:40:57;4.80;;;4.30;;
15667;SDS011;7934;48.710;9.024;2023-03-21T05:43:28;6.82;;;4.40;;
15667;SDS011;7934;48.710;9.024;2023-03-21T06:23:37;5.78;;;4.53;;
15667;SDS011;7934;48.710;9.024;2023-03-21T06:26:18;8.40;;;5.00;;
15667;SDS011;7934;48.710;9.024;2023-03-21T07:31:37;4.38;;;3.45;;
15667;SDS011;7934;48.710;9.024;2023-03-21T07:34:04;4.88;;;3.83;;
15667;SDS011;7934;48.710;9.024;2023-03-21T07:36:31;6.68;;;3.05;;
15667;SDS011;7934;48.710;9.024;2023-03-21T07:42:28;6.13;;;3.20;;
15667;SDS011;7934;48.710;9.024;2023-03-21T07:45:15;3.65;;;2.85;;
15667;SDS011;7934;48.710;9.024;2023-03-21T07:48:17;4.83;;;2.70;;
15667;SDS011;7934;48.710;9.024;2023-03-21T07:57:37;3.72;;;2.80;;
15667;SDS011;7934;48.710;9.024;2023-03-21T08:00:06;2.50;;;2.30;;
15667;SDS011;7934;48.710;9.024;2023-03-21T08:02:33;2.87;;;2.67;;
15667;SDS011;7934;48.710;9.024;2023-03-21T08:05:02;2.80;;;2.50;;
15667;SDS011;7934;48.710;9.024;2023-03-21T08:07:30;2.60;;;2.40;;
15667;SDS011;7934;48.710;9.024;2023-03-21T08:22:41;2.03;;;1.92;;
15667;SDS011;7934;48.710;9.024;2023-03-21T08:25:27;2.72;;;2.35;;
15667;SDS011;7934;48.710;9.024;2023-03-21T08:31:21;2.20;;;2.10;;
15667;SDS011;7934;48.710;9.024;2023-03-21T08:34:08;2.22;;;2.00;;
15667;SDS011;7934;48.710;9.024;2023-03-21T08:36:49;4.05;;;2.10;;
15667;SDS011;7934;48.710;9.024;2023-03-21T08:39:19;1.70;;;1.60;;
15667;SDS011;7934;48.710;9.024;2023-03-21T08:41:48;3.13;;;1.60;;
15667;SDS011;7934;48.710;9.024;2023-03-21T08:44:23;1.83;;;1.60;;
15667;SDS011;7934;48.710;9.024;2023-03-21T08:46:51;3.67;;;1.70;;
15667;SDS011;7934;48.710;9.024;2023-03-21T08:49:19;1.90;;;1.80;;
15667;SDS011;7934;48.710;9.024;2023-03-21T08:52:07;2.22;;;1.80;;
15667;SDS011;7934;48.710;9.024;2023-03-21T08:57:59;2.30;;;1.83;;
15667;SDS011;7934;48.710;9.024;2023-03-21T09:00:29;2.42;;;1.85;;
15667;SDS011;7934;48.710;9.024;2023-03-21T09:02:56;2.13;;;1.95;;
15667;SDS011;7934;48.710;9.024;2023-03-21T09:05:24;3.55;;;1.80;;
15667;SDS011;7934;48.710;9.024;2023-03-21T09:07:55;1.88;;;1.77;;
15667;SDS011;7934;48.710;9.024;2023-03-21T09:10:25;2.77;;;1.87;;
15667;SDS011;7934;48.710;9.024;2023-03-21T09:15:37;2.38;;;1.73;;
15667;SDS011;7934;48.710;9.024;2023-03-21T09:18:11;1.58;;;1.55;;
15667;SDS011;7934;48.710;9.024;2023-03-21T09:20:56;2.65;;;1.85;;
15667;SDS011;7934;48.710;9.024;2023-03-21T09:23:26;3.55;;;2.10;;
15667;SDS011;7934;48.710;9.024;2023-03-21T09:30:38;1.98;;;1.90;;
15667;SDS011;7934;48.710;9.024;2023-03-21T09:38:31;2.03;;;1.92;;
15667;SDS011;7934;48.710;9.024;2023-03-21T09:41:03;2.80;;;2.30;;
15667;SDS011;7934;48.710;9.024;2023-03-21T09:43:39;2.10;;;2.00;;
15667;SDS011;7934;48.710;9.024;2023-03-21T09:46:08;2.43;;;2.23;;
15667;SDS011;7934;48.710;9.024;2023-03-21T09:48:49;1.98;;;1.88;;
15667;SDS011;7934;48.710;9.024;2023-03-21T09:54:10;1.60;;;1.60;;
15667;SDS011;7934;48.710;9.024;2023-03-21T09:56:39;2.25;;;1.70;;
15667;SDS011;7934;48.710;9.024;2023-03-21T09:59:13;2.15;;;2.05;;
15667;SDS011;7934;48.710;9.024;2023-03-21T10:01:53;2.10;;;1.90;;
15667;SDS011;7934;48.710;9.024;2023-03-21T10:04:21;1.85;;;1.77;;
15667;SDS011;7934;48.710;9.024;2023-03-21T10:06:55;1.85;;;1.75;;
15667;SDS011;7934;48.710;9.024;2023-03-21T10:09:30;2.00;;;1.88;;
15667;SDS011;7934;48.710;9.024;2023-03-21T10:11:59;1.85;;;1.75;;
15667;SDS011;7934;48.710;9.024;2023-03-21T10:14:28;2.00;;;1.90;;
15667;SDS011;7934;48.710;9.024;2023-03-21T10:16:57;2.40;;;1.90;;
15667;SDS011;7934;48.710;9.024;2023-03-21T10:19:26;1.80;;;1.70;;
15667;SDS011;7934;48.710;9.024;2023-03-21T10:21:57;2.03;;;1.93;;
15667;SDS011;7934;48.710;9.024;2023-03-21T10:24:25;2.00;;;1.70;;
15667;SDS011;7934;48.710;9.024;2023-03-21T10:30:17;2.42;;;1.75;;
15667;SDS011;7934;48.710;9.024;2023-03-21T10:33:03;1.95;;;1.80;;
15667;SDS011;7934;48.710;9.024;2023-03-21T10:35:33;1.53;;;1.43;;
15667;SDS011;7934;48.710;9.024;2023-03-21T10:38:02;1.95;;;1.40;;
15667;SDS011;7934;48.710;9.024;2023-03-21T10:40:29;1.40;;;1.30;;
15667;SDS011;7934;48.710;9.024;2023-03-21T10:42:58;1.33;;;1.27;;
15667;SDS011;7934;48.710;9.024;2023-03-21T10:45:42;1.55;;;1.45;;
15667;SDS011;7934;48.710;9.024;2023-03-21T10:48:14;3.03;;;1.30;;
15667;SDS011;7934;48.710;9.024;2023-03-21T10:51:04;1.60;;;1.50;;
15667;SDS011;7934;48.710;9.024;2023-03-21T10:53:34;1.80;;;1.70;;
15667;SDS011;7934;48.710;9.024;2023-03-21T10:56:06;1.80;;;1.70;;
15667;SDS011;7934;48.710;9.024;2023-03-21T10:58:38;2.33;;;1.83;;
15667;SDS011;7934;48.710;9.024;2023-03-21T11:01:22;2.92;;;1.77;;
15667;SDS011;7934;48.710;9.024;2023-03-21T11:03:54;1.93;;;1.63;;
15667;SDS011;7934;48.710;9.024;2023-03-21T11:06:26;2.78;;;1.90;;
15667;SDS011;7934;48.710;9.024;2023-03-21T11:08:54;2.28;;;1.90;;
15667;SDS011;7934;48.710;9.024;2023-03-21T11:11:23;2.10;;;2.00;;
15667;SDS011;7934;48.710;9.024;2023-03-21T11:16:44;2.13;;;2.03;;
15667;SDS011;7934;48.710;9.024;2023-03-21T11:22:03;2.63;;;2.50;;
15667;SDS011;7934;48.710;9.024;2023-03-21T11:24:47;2.78;;;2.47;;
15667;SDS011;7934;48.710;9.024;2023-03-21T11:27:15;2.45;;;2.38;;
15667;SDS011;7934;48.710;9.024;2023-03-21T11:29:47;2.40;;;2.20;;
15667;SDS011;7934;48.710;9.024;2023-03-21T11:32:21;2.67;;;2.30;;
15667;SDS011;7934;48.710;9.024;2023-03-21T11:34:52;2.58;;;2.38;;
15667;SDS011;7934;48.710;9.024;2023-03-21T11:37:24;2.60;;;2.40;;
15667;SDS011;7934;48.710;9.024;2023-03-21T11:39:55;3.20;;;2.60;;
15667;SDS011;7934;48.710;9.024;2023-03-21T11:42:28;4.65;;;2.83;;
15667;SDS011;7934;48.710;9.024;2023-03-21T11:45:04;4.40;;;3.30;;
15667;SDS011;7934;48.710;9.024;2023-03-21T11:47:37;4.25;;;3.08;;
15667;SDS011;7934;48.710;9.024;2023-03-21T11:50:13;2.90;;;2.80;;
15667;SDS011;7934;48.710;9.024;2023-03-21T11:52:42;3.03;;;2.85;;
15667;SDS011;7934;48.710;9.024;2023-03-21T11:55:25;3.10;;;2.80;;
15667;SDS011;7934;48.710;9.024;2023-03-21T11:58:02;3.10;;;2.78;;
15667;SDS011;7934;48.710;9.024;2023-03-21T12:00:32;2.72;;;2.53;;
15667;SDS011;7934;48.710;9.024;2023-03-21T12:03:25;5.78;;;5.28;;
15667;SDS011;7934;48.710;9.024;2023-03-21T12:05:57;3.20;;;2.90;;
15667;SDS011;7934;48.710;9.024;2023-03-21T12:08:29;2.50;;;2.40;;
15667;SDS011;7934;48.710;9.024;2023-03-21T12:11:00;2.58;;;2.38;;
15667;SDS011;7934;48.710;9.024;2023-03-21T12:13:34;2.30;;;2.10;;
15667;SDS011;7934;48.710;9.024;2023-03-21T12:16:13;2.35;;;2.00;;
15667;SDS011;7934;48.710;9.024;2023-03-21T12:18:49;2.30;;;2.10;;
15667;SDS011;7934;48.710;9.024;2023-03-21T12:21:22;5.67;;;2.17;;
15667;SDS011;7934;48.710;9.024;2023-03-21T12:23:56;2.00;;;1.90;;
15667;SDS011;7934;48.710;9.024;2023-03-21T12:26:25;2.17;;;2.03;;
15667;SDS011;7934;48.710;9.024;2023-03-21T12:31:41;2.20;;;1.83;;
15667;SDS011;7934;48.710;9.024;2023-03-21T12:34:15;1.80;;;1.70;;
15667;SDS011;7934;48.710;9.024;2023-03-21T12:36:51;2.97;;;1.63;;
15667;SDS011;7934;48.710;9.024;2023-03-21T12:39:23;1.70;;;1.60;;
15667;SDS011;7934;48.710;9.024;2023-03-21T12:41:56;1.70;;;1.70;;
15667;SDS011;7934;48.710;9.024;2023-03-21T12:44:32;1.97;;;1.70;;
15667;SDS011;7934;48.710;9.024;2023-03-21T12:47:03;2.00;;;1.70;;
15667;SDS011;7934;48.710;9.024;2023-03-21T12:49:34;2.97;;;2.17;;
15667;SDS011;7934;48.710;9.024;2023-03-21T12:52:04;4.80;;;1.93;;
15667;SDS011;7934;48.710;9.024;2023-03-21T12:54:34;1.70;;;1.60;;
15667;SDS011;7934;48.710;9.024;2023-03-21T12:57:03;2.33;;;1.98;;
15667;SDS011;7934;48.710;9.024;2023-03-21T12:59:40;2.17;;;1.75;;
15667;SDS011;7934;48.710;9.024;2023-03-21T13:02:15;1.70;;;1.60;;
15667;SDS011;7934;48.710;9.024;2023-03-21T13:04:46;2.78;;;1.55;;
15667;SDS011;7934;48.710;9.024;2023-03-21T13:07:16;1.92;;;1.60;;
15667;SDS011;7934;48.710;9.024;2023-03-21T13:09:45;1.65;;;1.55;;
15667;SDS011;7934;48.710;9.024;2023-03-21T13:15:31;3.20;;;1.80;;
15667;SDS011;7934;48.710;9.024;2023-03-21T13:18:03;2.13;;;1.75;;
15667;SDS011;7934;48.710;9.024;2023-03-21T13:20:41;1.83;;;1.73;;
15667;SDS011;7934;48.710;9.024;2023-03-21T13:23:09;1.65;;;1.55;;
15667;SDS011;7934;48.710;9.024;2023-03-21T13:25:39;1.70;;;1.60;;
15667;SDS011;7934;48.710;9.024;2023-03-21T13:28:11;1.67;;;1.48;;
15667;SDS011;7934;48.710;9.024;2023-03-21T13:30:41;1.75;;;1.30;;
15667;SDS011;7934;48.710;9.024;2023-03-21T13:33:10;2.47;;;1.55;;
15667;SDS011;7934;48.710;9.024;2023-03-21T13:35:41;1.67;;;1.58;;
15667;SDS011;7934;48.710;9.024;2023-03-21T13:38:10;3.65;;;1.70;;
15667;SDS011;7934;48.710;9.024;2023-03-21T13:40:41;1.77;;;1.67;;
15667;SDS011;7934;48.710;9.024;2023-03-21T13:45:52;1.95;;;1.85;;
15667;SDS011;7934;48.710;9.024;2023-03-21T13:48:26;2.03;;;1.83;;
15667;SDS011;7934;48.710;9.024;2023-03-21T13:50:58;2.40;;;1.80;;
15667;SDS011;7934;48.710;9.024;2023-03-21T13:53:30;2.10;;;1.90;;
15667;SDS011;7934;48.710;9.024;2023-03-21T13:55:59;3.70;;;1.77;;
15667;SDS011;7934;48.710;9.024;2023-03-21T13:58:33;2.20;;;2.00;;
15667;SDS011;7934;48.710;9.024;2023-03-21T14:01:12;2.75;;;1.90;;
15667;SDS011;7934;48.710;9.024;2023-03-21T14:03:43;2.45;;;2.25;;
15667;SDS011;7934;48.710;9.024;2023-03-21T14:06:12;2.65;;;2.33;;
15667;SDS011;7934;48.710;9.024;2023-03-21T14:08:40;2.13;;;2.00;;
15667;SDS011;7934;48.710;9.024;2023-03-21T14:11:11;3.05;;;1.98;;
15667;SDS011;7934;48.710;9.024;2023-03-21T14:13:40;3.23;;;2.20;;
15667;SDS011;7934;48.710;9.024;2023-03-21T14:16:09;2.10;;;1.95;;
15667;SDS011;7934;48.710;9.024;2023-03-21T14:18:40;5.30;;;2.20;;
15667;SDS011;7934;48.710;9.024;2023-03-21T14:21:14;2.50;;;2.30;;
15667;SDS011;7934;48.710;9.024;2023-03-21T14:23:41;2.50;;;2.03;;
15667;SDS011;7934;48.710;9.024;2023-03-21T14:26:09;4.75;;;2.08;;
15667;SDS011;7934;48.710;9.024;2023-03-21T14:28:36;5.80;;;2.65;;
15667;SDS011;7934;48.710;9.024;2023-03-21T14:31:05;2.78;;;1.88;;
15667;SDS011;7934;48.710;9.024;2023-03-21T14:33:34;4.00;;;2.08;;
15667;SDS011;7934;48.710;9.024;2023-03-21T14:36:06;2.70;;;1.95;;
15667;SDS011;7934;48.710;9.024;2023-03-21T14:38:35;3.05;;;1.77;;
15667;SDS011;7934;48.710;9.024;2023-03-21T14:41:04;4.10;;;2.00;;
15667;SDS011;7934;48.710;9.024;2023-03-21T14:43:31;4.90;;;1.90;;
15667;SDS011;7934;48.710;9.024;2023-03-21T14:45:59;2.97;;;1.73;;
15667;SDS011;7934;48.710;9.024;2023-03-21T14:48:30;2.90;;;1.93;;
15667;SDS011;7934;48.710;9.024;2023-03-21T14:51:00;2.85;;;1.85;;
15667;SDS011;7934;48.710;9.024;2023-03-21T14:53:31;2.00;;;1.70;;
15667;SDS011;7934;48.710;9.024;2023-03-21T14:56:01;2.33;;;1.40;;
15667;SDS011;7934;48.710;9.024;2023-03-21T14:58:28;3.60;;;1.77;;
15667;SDS011;7934;48.710;9.024;2023-03-21T15:00:57;1.25;;;1.23;;
15667;SDS011;7934;48.710;9.024;2023-03-21T15:03:24;1.95;;;1.52;;
15667;SDS011;7934;48.710;9.024;2023-03-21T15:05:52;1.30;;;1.30;;
15667;SDS011;7934;48.710;9.024;2023-03-21T15:08:24;2.03;;;1.42;;
15667;SDS011;7934;48.710;9.024;2023-03-21T15:11:56;1.35;;;1.35;;
15667;SDS011;7934;48.710;9.024;2023-03-21T15:14:00;1.70;;;1.30;;
15667;SDS011;7934;48.710;9.024;2023-03-21T15:16:28;2.83;;;1.38;;
15667;SDS011;7934;48.710;9.024;2023-03-21T15:18:56;1.48;;;1.20;;
15667;SDS011;7934;48.710;9.024;2023-03-21T15:21:24;1.20;;;1.20;;
15667;SDS011;7934;48.710;9.024;2023-03-21T15:23:54;1.38;;;1.27;;
15667;SDS011;7934;48.710;9.024;2023-03-21T15:26:23;0.98;;;0.98;;
15667;SDS011;7934;48.710;9.024;2023-03-21T15:28:54;1.58;;;1.13;;
15667;SDS011;7934;48.710;9.024;2023-03-21T15:31:23;1.20;;;1.17;;
15667;SDS011;7934;48.710;9.024;2023-03-21T15:33:51;2.17;;;1.50;;
15667;SDS011;7934;48.710;9.024;2023-03-21T15:36:24;3.00;;;2.28;;
15667;SDS011;7934;48.710;9.024;2023-03-21T15:38:55;2.67;;;2.28;;
15667;SDS011;7934;48.710;9.024;2023-03-21T15:41:26;3.72;;;2.63;;
15667;SDS011;7934;48.710;9.024;2023-03-21T15:43:59;4.65;;;2.40;;
15667;SDS011;7934;48.710;9.024;2023-03-21T15:46:38;4.30;;;2.50;;
15667;SDS011;7934;48.710;9.024;2023-03-21T15:49:19;3.58;;;2.30;;
15667;SDS011;7934;48.710;9.024;2023-03-21T15:51:51;3.42;;;2.30;;
15667;SDS011;7934;48.710;9.024;2023-03-21T15:54:20;3.92;;;2.38;;
15667;SDS011;7934;48.710;9.024;2023-03-21T15:56:50;2.60;;;2.40;;
15667;SDS011;7934;48.710;9.024;2023-03-21T15:59:19;3.55;;;2.22;;
15667;SDS011;7934;48.710;9.024;2023-03-21T16:01:48;3.70;;;2.33;;
15667;SDS011;7934;48.710;9.024;2023-03-21T16:04:16;2.28;;;2.00;;
15667;SDS011;7934;48.710;9.024;2023-03-21T16:09:44;2.85;;;2.38;;
15667;SDS011;7934;48.710;9.024;2023-03-21T16:12:26;4.80;;;2.22;;
15667;SDS011;7934;48.710;9.024;2023-03-21T16:15:10;2.25;;;2.00;;
15667;SDS011;7934;48.710;9.024;2023-03-21T16:17:47;3.40;;;2.53;;
15667;SDS011;7934;48.710;9.024;2023-03-21T16:20:16;3.35;;;2.50;;
15667;SDS011;7934;48.710;9.024;2023-03-21T16:23:02;4.65;;;2.40;;
15667;SDS011;7934;48.710;9.024;2023-03-21T16:25:34;2.55;;;2.35;;
15667;SDS011;7934;48.710;9.024;2023-03-21T16:31:19;4.65;;;2.80;;
15667;SDS011;7934;48.710;9.024;2023-03-21T16:33:48;3.78;;;2.30;;
15667;SDS011;7934;48.710;9.024;2023-03-21T16:36:40;4.30;;;2.30;;
15667;SDS011;7934;48.710;9.024;2023-03-21T16:39:19;5.78;;;2.65;;
15667;SDS011;7934;48.710;9.024;2023-03-21T16:41:48;2.63;;;2.30;;
15667;SDS011;7934;48.710;9.024;2023-03-21T16:44:17;3.60;;;2.63;;
15667;SDS011;7934;48.710;9.024;2023-03-21T16:46:45;5.63;;;2.90;;
15667;SDS011;7934;48.710;9.024;2023-03-21T16:49:21;3.90;;;2.50;;
15667;SDS011;7934;48.710;9.024;2023-03-21T16:51:50;5.18;;;2.45;;
15667;SDS011;7934;48.710;9.024;2023-03-21T16:54:32;4.10;;;2.10;;
15667;SDS011;7934;48.710;9.024;2023-03-21T16:57:02;2.80;;;2.30;;
15667;SDS011;7934;48.710;9.024;2023-03-21T16:59:36;2.30;;;2.08;;
15667;SDS011;7934;48.710;9.024;2023-03-21T17:02:08;2.70;;;2.50;;
15667;SDS011;7934;48.710;9.024;2023-03-21T17:04:38;6.10;;;2.38;;
15667;SDS011;7934;48.710;9.024;2023-03-21T17:07:08;3.25;;;2.60;;
15667;SDS011;7934;48.710;9.024;2023-03-21T17:09:38;4.38;;;2.25;;
15667;SDS011;7934;48.710;9.024;2023-03-21T17:12:08;3.50;;;2.23;;
15667;SDS011;7934;48.710;9.024;2023-03-21T17:14:37;2.92;;;2.20;;
15667;SDS011;7934;48.710;9.024;2023-03-21T17:17:05;3.92;;;2.33;;
15667;SDS011;7934;48.710;9.024;2023-03-21T17:19:32;2.53;;;1.80;;
15667;SDS011;7934;48.710;9.024;2023-03-21T17:22:01;3.92;;;2.13;;
15667;SDS011;7934;48.710;9.024;2023-03-21T17:24:28;2.70;;;2.00;;
15667;SDS011;7934;48.710;9.024;2023-03-21T17:26:55;2.65;;;2.10;;
15667;SDS011;7934;48.710;9.024;2023-03-21T17:29:23;3.75;;;2.15;;
15667;SDS011;7934;48.710;9.024;2023-03-21T17:31:50;6.68;;;2.15;;
15667;SDS011;7934;48.710;9.024;2023-03-21T17:34:17;4.65;;;1.98;;
15667;SDS011;7934;48.710;9.024;2023-03-21T17:36:45;3.03;;;2.00;;
15667;SDS011;7934;48.710;9.024;2023-03-21T17:39:15;3.72;;;1.65;;
15667;SDS011;7934;48.710;9.024;2023-03-21T17:41:58;2.00;;;1.90;;
15667;SDS011;7934;48.710;9.024;2023-03-21T17:44:25;3.33;;;1.90;;
15667;SDS011;7934;48.710;9.024;2023-03-21T17:46:52;4.57;;;1.90;;
15667;SDS011;7934;48.710;9.024;2023-03-21T17:49:20;3.10;;;1.70;;
15667;SDS011;7934;48.710;9.024;2023-03-21T17:51:47;7.68;;;2.47;;
15667;SDS011;7934;48.710;9.024;2023-03-21T17:54:17;5.43;;;1.98;;
15667;SDS011;7934;48.710;9.024;2023-03-21T17:56:44;3.40;;;1.90;;
15667;SDS011;7934;48.710;9.024;2023-03-21T17:59:13;4.20;;;2.10;;
15667;SDS011;7934;48.710;9.024;2023-03-21T18:01:40;5.47;;;2.03;;
15667;SDS011;7934;48.710;9.024;2023-03-21T18:04:18;4.03;;;2.00;;
15667;SDS011;7934;48.710;9.024;2023-03-21T18:19:23;3.17;;;2.08;;
15667;SDS011;7934;48.710;9.024;2023-03-21T18:21:57;3.85;;;2.30;;
15667;SDS011;7934;48.710;9.024;2023-03-21T18:24:25;4.03;;;2.10;;
15667;SDS011;7934;48.710;9.024;2023-03-21T18:27:09;4.90;;;2.43;;
15667;SDS011;7934;48.710;9.024;2023-03-21T18:30:04;4.72;;;2.53;;
15667;SDS011;7934;48.710;9.024;2023-03-21T18:33:02;4.18;;;2.60;;
15667;SDS011;7934;48.710;9.024;2023-03-21T18:35:55;3.45;;;3.05;;
15667;SDS011;7934;48.710;9.024;2023-03-21T18:38:59;4.30;;;2.53;;
15667;SDS011;7934;48.710;9.024;2023-03-21T18:41:43;6.20;;;2.73;;
15667;SDS011;7934;48.710;9.024;2023-03-21T18:44:47;5.00;;;2.75;;
15667;SDS011;7934;48.710;9.024;2023-03-21T18:50:13;5.57;;;2.80;;
15667;SDS011;7934;48.710;9.024;2023-03-21T19:22:45;8.10;;;3.10;;
15667;SDS011;7934;48.710;9.024;2023-03-21T19:25:31;4.68;;;3.00;;
15667;SDS011;7934;48.710;9.024;2023-03-21T19:34:25;6.25;;;3.00;;
15667;SDS011;7934;48.710;9.024;2023-03-21T19:37:06;5.00;;;3.28;;
15667;SDS011;7934;48.710;9.024;2023-03-21T19:42:45;8.02;;;3.30;;
15667;SDS011;7934;48.710;9.024;2023-03-21T19:45:13;8.05;;;3.60;;
15667;SDS011;7934;48.710;9.024;2023-03-21T19:48:31;5.45;;;3.92;;
15667;SDS011;7934;48.710;9.024;2023-03-21T19:50:52;6.78;;;4.00;;
15667;SDS011;7934;48.710;9.024;2023-03-21T19:53:43;5.53;;;3.80;;
15667;SDS011;7934;48.710;9.024;2023-03-21T19:56:14;5.15;;;3.88;;
15667;SDS011;7934;48.710;9.024;2023-03-21T19:58:43;6.70;;;4.20;;
15667;SDS011;7934;48.710;9.024;2023-03-21T20:01:12;6.55;;;3.63;;
15667;SDS011;7934;48.710;9.024;2023-03-21T20:03:47;6.10;;;3.75;;
15667;SDS011;7934;48.710;9.024;2023-03-21T20:06:15;6.47;;;3.75;;
15667;SDS011;7934;48.710;9.024;2023-03-21T20:08:42;3.90;;;3.63;;
15667;SDS011;7934;48.710;9.024;2023-03-21T20:11:11;7.80;;;4.15;;
15667;SDS011;7934;48.710;9.024;2023-03-21T20:13:39;5.35;;;3.90;;
15667;SDS011;7934;48.710;9.024;2023-03-21T20:16:27;5.37;;;3.90;;
15667;SDS011;7934;48.710;9.024;2023-03-21T20:18:57;4.38;;;3.97;;
15667;SDS011;7934;48.710;9.024;2023-03-21T20:21:38;4.82;;;3.67;;
15667;SDS011;7934;48.710;9.024;2023-03-21T20:24:19;3.78;;;3.38;;
15667;SDS011;7934;48.710;9.024;2023-03-21T20:27:12;3.75;;;3.13;;
15667;SDS011;7934;48.710;9.024;2023-03-21T20:30:16;4.32;;;2.92;;
15667;SDS011;7934;48.710;9.024;2023-03-21T20:32:54;3.10;;;2.80;;
15667;SDS011;7934;48.710;9.024;2023-03-21T20:35:25;4.72;;;3.05;;
15667;SDS011;7934;48.710;9.024;2023-03-21T20:37:55;3.05;;;2.70;;
15667;SDS011;7934;48.710;9.024;2023-03-21T20:40:26;3.97;;;2.93;;
15667;SDS011;7934;48.710;9.024;2023-03-21T20:42:54;4.22;;;3.28;;
15667;SDS011;7934;48.710;9.024;2023-03-21T20:45:25;5.43;;;3.17;;
15667;SDS011;7934;48.710;9.024;2023-03-21T20:47:54;5.68;;;2.97;;
15667;SDS011;7934;48.710;9.024;2023-03-21T20:50:25;3.67;;;2.95;;
15667;SDS011;7934;48.710;9.024;2023-03-21T20:52:57;6.03;;;3.28;;
15667;SDS011;7934;48.710;9.024;2023-03-21T20:55:25;8.00;;;3.40;;
15667;SDS011;7934;48.710;9.024;2023-03-21T20:57:52;4.75;;;3.70;;
15667;SDS011;7934;48.710;9.024;2023-03-21T21:00:20;4.82;;;3.50;;
15667;SDS011;7934;48.710;9.024;2023-03-21T21:02:48;5.73;;;3.50;;
15667;SDS011;7934;48.710;9.024;2023-03-21T21:05:20;5.57;;;3.60;;
15667;SDS011;7934;48.710;9.024;2023-03-21T21:07:55;5.40;;;3.50;;
15667;SDS011;7934;48.710;9.024;2023-03-21T21:10:22;3.80;;;3.30;;
15667;SDS011;7934;48.710;9.024;2023-03-21T21:12:50;7.97;;;4.00;;
15667;SDS011;7934;48.710;9.024;2023-03-21T21:15:18;3.33;;;3.13;;
15667;SDS011;7934;48.710;9.024;2023-03-21T21:17:45;6.28;;;3.47;;
15667;SDS011;7934;48.710;9.024;2023-03-21T21:20:14;6.60;;;4.00;;
15667;SDS011;7934;48.710;9.024;2023-03-21T21:22:44;5.65;;;3.35;;
15667;SDS011;7934;48.710;9.024;2023-03-21T21:25:11;5.25;;;3.40;;
15667;SDS011;7934;48.710;9.024;2023-03-21T21:27:38;3.35;;;3.08;;
15667;SDS011;7934;48.710;9.024;2023-03-21T21:30:06;4.80;;;2.83;;
15667;SDS011;7934;48.710;9.024;2023-03-21T21:32:36;3.75;;;2.83;;
15667;SDS011;7934;48.710;9.024;2023-03-21T21:35:04;4.35;;;2.83;;
15667;SDS011;7934;48.710;9.024;2023-03-21T21:37:31;5.72;;;3.10;;
15667;SDS011;7934;48.710;9.024;2023-03-21T21:40:00;7.65;;;3.20;;
15667;SDS011;7934;48.710;9.024;2023-03-21T21:42:36;3.63;;;3.17;;
15667;SDS011;7934;48.710;9.024;2023-03-21T21:45:04;3.50;;;3.20;;
15667;SDS011;7934;48.710;9.024;2023-03-21T21:47:34;4.13;;;3.35;;
15667;SDS011;7934;48.710;9.024;2023-03-21T21:50:05;3.67;;;3.37;;
15667;SDS011;7934;48.710;9.024;2023-03-21T21:52:33;8.40;;;3.80;;
15667;SDS011;7934;48.710;9.024;2023-03-21T21:55:06;4.97;;;3.47;;
15667;SDS011;7934;48.710;9.024;2023-03-21T21:57:33;3.53;;;3.22;;
15667;SDS011;7934;48.710;9.024;2023-03-21T22:00:04;4.25;;;3.47;;
15667;SDS011;7934;48.710;9.024;2023-03-21T22:02:36;4.83;;;3.93;;
15667;SDS011;7934;48.710;9.024;2023-03-21T22:05:04;4.15;;;3.70;;
15667;SDS011;7934;48.710;9.024;2023-03-21T22:07:32;3.87;;;3.57;;
15667;SDS011;7934;48.710;9.024;2023-03-21T22:10:01;7.75;;;3.85;;
15667;SDS011;7934;48.710;9.024;2023-03-21T22:12:32;4.55;;;3.80;;
15667;SDS011;7934;48.710;9.024;2023-03-21T22:21:13;3.90;;;3.50;;
15667;SDS011;7934;48.710;9.024;2023-03-21T22:23:54;4.15;;;3.40;;
15667;SDS011;7934;48.710;9.024;2023-03-21T22:29:27;4.50;;;3.50;;
15667;SDS011;7934;48.710;9.024;2023-03-21T22:31:55;4.10;;;3.70;;
15667;SDS011;7934;48.710;9.024;2023-03-21T22:34:22;4.82;;;3.47;;
15667;SDS011;7934;48.710;9.024;2023-03-21T22:36:53;3.90;;;3.50;;
15667;SDS011;7934;48.710;9.024;2023-03-21T22:39:21;4.65;;;4.00;;
15667;SDS011;7934;48.710;9.024;2023-03-21T22:41:58;5.18;;;3.75;;
15667;SDS011;7934;48.710;9.024;2023-03-21T22:44:35;4.13;;;3.72;;
15667;SDS011;7934;48.710;9.024;2023-03-21T22:47:05;3.90;;;3.60;;
15667;SDS011;7934;48.710;9.024;2023-03-21T22:49:47;4.00;;;3.67;;
15667;SDS011;7934;48.710;9.024;2023-03-21T22:52:14;4.05;;;3.75;;
15667;SDS011;7934;48.710;9.024;2023-03-21T22:54:41;5.43;;;3.80;;
15667;SDS011;7934;48.710;9.024;2023-03-21T22:57:23;4.25;;;3.83;;
15667;SDS011;7934;48.710;9.024;2023-03-21T23:24:23;4.70;;;4.30;;
15667;SDS011;7934;48.710;9.024;2023-03-21T23:27:16;5.88;;;4.82;;
15667;SDS011;7934;48.710;9.024;2023-03-21T23:30:05;5.00;;;4.60;;
15667;SDS011;7934;48.710;9.024;2023-03-21T23:32:36;4.32;;;4.00;;
15667;SDS011;7934;48.710;9.024;2023-03-21T23:35:06;6.70;;;4.75;;
15667;SDS011;7934;48.710;9.024;2023-03-21T23:37:33;6.65;;;4.72;;
15667;SDS011;7934;48.710;9.024;2023-03-21T23:40:10;4.93;;;4.47;;
15667;SDS011;7934;48.710;9.024;2023-03-21T23:42:37;9.68;;;4.72;;
15667;SDS011;7934;48.710;9.024;2023-03-21T23:45:10;6.82;;;4.75;;
15667;SDS011;7934;48.710;9.024;2023-03-21T23:47:57;6.50;;;5.65;;
15667;SDS011;7934;48.710;9.024;2023-03-21T23:50:24;6.72;;;5.50;;
15667;SDS011;7934;48.710;9.024;2023-03-21T23:55:40;6.38;;;5.07;;
